createdAt,value
2018-12-19T00:00:12.753Z,3.67
2018-12-19T00:02:45.352Z,3.74
2018-12-19T00:05:17.922Z,3.76
2018-12-19T00:07:50.539Z,3.85
2018-12-19T00:10:23.080Z,3.73
2018-12-19T00:12:55.660Z,3.73
2018-12-19T00:15:28.252Z,3.77
2018-12-19T00:18:01.135Z,3.82
2018-12-19T00:20:33.763Z,3.79
2018-12-19T00:23:06.355Z,3.80
2018-12-19T00:25:38.916Z,3.74
2018-12-19T00:28:11.490Z,3.69
2018-12-19T00:30:44.041Z,3.81
2018-12-19T00:33:16.627Z,3.86
2018-12-19T00:35:49.228Z,3.90
2018-12-19T00:38:21.825Z,3.82
2018-12-19T00:40:54.376Z,3.86
2018-12-19T00:43:26.947Z,3.78
2018-12-19T00:45:59.548Z,3.85
2018-12-19T00:48:32.218Z,3.76
2018-12-19T00:51:04.800Z,3.79
2018-12-19T00:53:37.516Z,3.88
2018-12-19T00:56:10.078Z,3.85
2018-12-19T00:58:42.671Z,3.86
2018-12-19T01:01:15.229Z,3.88
2018-12-19T01:03:47.919Z,3.99
2018-12-19T01:06:20.860Z,4.03
2018-12-19T01:08:53.417Z,3.97
2018-12-19T01:11:25.998Z,3.87
2018-12-19T01:13:58.617Z,4.03
2018-12-19T01:16:31.202Z,4.13
2018-12-19T01:19:03.784Z,4.18
2018-12-19T01:21:36.353Z,4.18
2018-12-19T01:24:09.029Z,4.20
2018-12-19T01:26:41.625Z,4.18
2018-12-19T01:29:14.192Z,4.11
2018-12-19T01:31:46.716Z,4.10
2018-12-19T01:34:19.275Z,4.08
2018-12-19T01:36:51.850Z,4.12
2018-12-19T01:39:24.445Z,4.11
2018-12-19T01:41:56.980Z,4.14
2018-12-19T01:44:29.550Z,4.18
2018-12-19T01:47:02.115Z,4.16
2018-12-19T01:49:34.811Z,4.31
2018-12-19T01:52:07.386Z,4.22
2018-12-19T01:54:40.071Z,4.15
2018-12-19T01:57:12.638Z,4.21
2018-12-19T01:59:45.438Z,4.27
2018-12-19T02:02:17.984Z,4.34
2018-12-19T02:04:50.656Z,4.33
2018-12-19T02:07:23.214Z,4.28
2018-12-19T02:09:55.786Z,4.39
2018-12-19T02:12:28.323Z,4.39
2018-12-19T02:15:00.988Z,4.40
2018-12-19T02:17:33.542Z,4.42
2018-12-19T02:20:06.404Z,4.42
2018-12-19T02:22:38.937Z,4.44
2018-12-19T02:25:11.518Z,4.23
2018-12-19T02:27:44.100Z,4.40
2018-12-19T02:30:16.805Z,4.44
2018-12-19T02:32:49.342Z,4.43
2018-12-19T02:35:22.020Z,4.52
2018-12-19T02:37:54.637Z,4.47
2018-12-19T02:40:27.209Z,4.38
2018-12-19T02:42:59.743Z,4.39
2018-12-19T02:45:32.323Z,4.42
2018-12-19T02:48:04.848Z,4.53
2018-12-19T02:50:37.677Z,4.53
2018-12-19T02:53:10.222Z,4.51
2018-12-19T02:55:42.810Z,4.52
2018-12-19T02:58:15.344Z,4.50
2018-12-19T03:00:48.002Z,4.54
2018-12-19T03:03:20.567Z,4.63
2018-12-19T03:05:53.204Z,4.54
2018-12-19T03:08:25.742Z,4.56
2018-12-19T03:10:58.507Z,4.69
2018-12-19T03:13:31.266Z,4.69
2018-12-19T03:16:03.929Z,4.70
2018-12-19T03:18:36.475Z,4.73
2018-12-19T03:21:09.052Z,4.75
2018-12-19T03:23:41.585Z,4.69
2018-12-19T03:26:14.143Z,4.65
2018-12-19T03:28:46.704Z,4.67
2018-12-19T03:31:19.606Z,4.57
2018-12-19T03:33:52.142Z,4.59
2018-12-19T03:36:24.804Z,4.64
2018-12-19T03:38:57.361Z,4.67
2018-12-19T03:41:30.043Z,4.63
2018-12-19T03:44:02.599Z,4.65
2018-12-19T03:46:35.238Z,4.55
2018-12-19T03:49:07.773Z,4.62
2018-12-19T03:51:40.907Z,4.63
2018-12-19T03:54:13.591Z,4.55
2018-12-19T03:56:46.781Z,4.58
2018-12-19T03:59:19.326Z,4.54
2018-12-19T04:01:51.900Z,4.50
2018-12-19T04:04:24.507Z,4.59
2018-12-19T04:06:57.291Z,4.53
2018-12-19T04:09:30.060Z,4.63
2018-12-19T04:12:02.622Z,4.59
2018-12-19T04:14:35.221Z,4.67
2018-12-19T04:17:07.813Z,4.63
2018-12-19T04:19:40.357Z,4.55
2018-12-19T04:22:12.931Z,4.63
2018-12-19T04:24:45.463Z,4.69
2018-12-19T04:27:18.025Z,4.53
2018-12-19T04:29:50.739Z,4.52
2018-12-19T04:32:23.674Z,4.47
2018-12-19T04:34:56.266Z,4.68
2018-12-19T04:37:28.842Z,4.71
2018-12-19T04:40:05.480Z,4.59
2018-12-19T04:42:36.093Z,4.70
2018-12-19T04:45:08.783Z,4.68
2018-12-19T04:47:41.356Z,4.77
2018-12-19T04:50:13.903Z,4.87
2018-12-19T04:52:46.561Z,4.74
2018-12-19T04:55:19.879Z,4.77
2018-12-19T04:57:52.594Z,4.79
2018-12-19T05:00:25.153Z,4.74
2018-12-19T05:02:57.795Z,4.78
2018-12-19T05:05:30.459Z,4.81
2018-12-19T05:08:03.206Z,4.80
2018-12-19T05:10:35.747Z,4.84
2018-12-19T05:13:08.585Z,4.86
2018-12-19T05:15:41.127Z,4.91
2018-12-19T05:18:13.735Z,4.94
2018-12-19T05:20:46.282Z,4.92
2018-12-19T05:23:18.932Z,4.93
2018-12-19T05:25:51.479Z,4.88
2018-12-19T05:28:24.207Z,4.82
2018-12-19T05:30:56.761Z,4.85
2018-12-19T05:33:29.329Z,4.85
2018-12-19T05:36:01.901Z,4.81
2018-12-19T05:38:34.592Z,4.76
2018-12-19T05:41:07.125Z,4.78
2018-12-19T05:43:39.770Z,4.79
2018-12-19T05:46:12.323Z,4.80
2018-12-19T05:48:44.997Z,4.78
2018-12-19T05:51:17.535Z,4.81
2018-12-19T05:53:50.128Z,4.82
2018-12-19T05:56:22.717Z,4.81
2018-12-19T05:58:55.305Z,4.83
2018-12-19T06:01:27.880Z,4.70
2018-12-19T06:04:00.448Z,4.72
2018-12-19T06:06:33.003Z,4.75
2018-12-19T06:09:06.443Z,4.78
2018-12-19T06:11:39.000Z,4.78
2018-12-19T06:14:11.705Z,4.82
2018-12-19T06:16:44.283Z,4.79
2018-12-19T06:19:16.960Z,4.79
2018-12-19T06:21:49.498Z,4.75
2018-12-19T06:24:22.079Z,4.74
2018-12-19T06:26:54.626Z,4.75
2018-12-19T06:29:27.444Z,4.73
2018-12-19T06:31:59.995Z,4.70
2018-12-19T06:34:32.649Z,4.66
2018-12-19T06:37:05.237Z,4.68
2018-12-19T06:39:37.802Z,4.46
2018-12-19T06:42:10.362Z,4.47
2018-12-19T06:44:42.956Z,4.50
2018-12-19T06:47:15.486Z,4.64
2018-12-19T06:49:48.114Z,4.69
2018-12-19T06:52:20.663Z,4.76
2018-12-19T06:54:53.312Z,4.70
2018-12-19T06:57:25.894Z,4.74
2018-12-19T06:59:58.471Z,4.82
2018-12-19T07:02:31.021Z,4.84
2018-12-19T07:05:04.267Z,4.89
2018-12-19T07:07:36.798Z,4.81
2018-12-19T07:10:09.471Z,4.77
2018-12-19T07:12:42.007Z,4.82
2018-12-19T07:15:14.709Z,4.87
2018-12-19T07:17:47.371Z,4.97
2018-12-19T07:20:20.063Z,4.96
2018-12-19T07:22:52.639Z,4.98
2018-12-19T07:25:25.327Z,5.03
2018-12-19T07:27:57.916Z,5.02
2018-12-19T07:30:30.749Z,5.05
2018-12-19T07:33:03.479Z,5.06
2018-12-19T07:35:36.129Z,5.04
2018-12-19T07:38:08.667Z,5.07
2018-12-19T07:40:45.693Z,5.06
2018-12-19T07:43:15.904Z,5.13
2018-12-19T07:45:48.449Z,5.11
2018-12-19T07:48:21.166Z,5.17
2018-12-19T07:50:53.727Z,5.21
2018-12-19T07:53:26.277Z,5.21
2018-12-19T07:56:00.106Z,5.16
2018-12-19T07:58:32.660Z,5.23
2018-12-19T08:01:05.229Z,5.27
2018-12-19T08:03:37.775Z,5.21
2018-12-19T08:06:10.348Z,5.18
2018-12-19T08:08:42.955Z,5.27
2018-12-19T08:11:15.543Z,5.37
2018-12-19T08:13:48.085Z,5.36
2018-12-19T08:16:20.659Z,5.41
2018-12-19T08:18:53.229Z,5.38
2018-12-19T08:21:25.795Z,5.42
2018-12-19T08:23:58.359Z,5.47
2018-12-19T08:26:30.929Z,5.52
2018-12-19T08:29:03.470Z,5.55
2018-12-19T08:31:36.211Z,5.58
2018-12-19T08:34:08.800Z,5.59
2018-12-19T08:36:41.970Z,5.59
2018-12-19T08:39:14.663Z,5.68
2018-12-19T08:41:47.549Z,5.60
2018-12-19T08:44:20.094Z,5.47
2018-12-19T08:46:52.803Z,5.52
2018-12-19T08:49:25.331Z,5.54
2018-12-19T08:51:58.035Z,5.62
2018-12-19T08:54:30.598Z,5.74
2018-12-19T08:57:03.161Z,5.52
2018-12-19T08:59:35.762Z,5.52
2018-12-19T09:02:08.323Z,5.66
2018-12-19T09:04:40.864Z,5.75
2018-12-19T09:07:13.443Z,5.80
2018-12-19T09:09:45.983Z,5.67
2018-12-19T09:12:18.564Z,5.78
2018-12-19T09:14:51.103Z,5.76
2018-12-19T09:17:24.125Z,5.83
2018-12-19T09:19:56.716Z,5.84
2018-12-19T09:22:29.584Z,5.89
2018-12-19T09:25:02.206Z,5.92
2018-12-19T09:27:34.812Z,5.94
2018-12-19T09:30:07.361Z,5.99
2018-12-19T09:32:39.914Z,5.91
2018-12-19T09:35:12.454Z,5.99
2018-12-19T09:37:45.052Z,6.03
2018-12-19T09:40:17.586Z,6.11
2018-12-19T09:42:50.197Z,6.21
2018-12-19T09:45:22.771Z,6.25
2018-12-19T09:47:55.443Z,6.22
2018-12-19T09:50:27.985Z,6.24
2018-12-19T09:53:00.552Z,6.24
2018-12-19T09:55:33.100Z,6.26
2018-12-19T09:58:06.020Z,6.31
2018-12-19T10:00:38.604Z,6.34
2018-12-19T10:03:11.161Z,6.41
2018-12-19T10:05:43.730Z,6.43
2018-12-19T10:08:16.428Z,6.44
2018-12-19T10:10:49.004Z,6.46
2018-12-19T10:13:21.676Z,6.43
2018-12-19T10:15:54.249Z,6.55
2018-12-19T10:18:26.981Z,6.60
2018-12-19T10:20:59.526Z,6.64
2018-12-19T10:23:32.171Z,6.61
2018-12-19T10:26:10.419Z,6.64
2018-12-19T10:28:42.997Z,6.67
2018-12-19T10:31:15.546Z,6.77
2018-12-19T10:33:48.154Z,6.80
2018-12-19T10:36:22.745Z,6.73
2018-12-19T10:38:55.682Z,6.69
2018-12-19T10:41:28.262Z,6.72
2018-12-19T10:44:00.897Z,6.80
2018-12-19T10:46:33.565Z,6.85
2018-12-19T10:49:06.188Z,6.67
2018-12-19T10:51:38.720Z,6.79
2018-12-19T10:54:11.310Z,6.90
2018-12-19T10:56:43.898Z,6.78
2018-12-19T10:59:16.489Z,6.67
2018-12-19T11:01:49.049Z,6.90
2018-12-19T11:04:21.651Z,6.81
2018-12-19T11:06:54.190Z,6.89
2018-12-19T11:09:26.755Z,6.91
2018-12-19T11:11:59.343Z,7.00
2018-12-19T11:14:32.696Z,6.97
2018-12-19T11:17:05.685Z,7.06
2018-12-19T11:19:38.258Z,7.12
2018-12-19T11:22:10.941Z,7.07
2018-12-19T11:24:43.628Z,7.05
2018-12-19T11:27:16.183Z,7.12
2018-12-19T11:29:48.976Z,7.13
2018-12-19T11:32:21.513Z,7.22
2018-12-19T11:34:54.082Z,7.36
2018-12-19T11:37:26.848Z,7.46
2018-12-19T11:39:59.434Z,7.50
2018-12-19T11:42:31.978Z,7.55
2018-12-19T11:45:05.203Z,7.50
2018-12-19T11:47:37.768Z,7.52
2018-12-19T11:50:10.328Z,7.51
2018-12-19T11:52:42.864Z,7.57
2018-12-19T11:55:15.471Z,7.63
2018-12-19T11:57:48.025Z,7.71
2018-12-19T12:00:20.583Z,7.60
2018-12-19T12:02:53.154Z,7.69
2018-12-19T12:05:25.769Z,7.49
2018-12-19T12:07:58.336Z,7.71
2018-12-19T12:10:31.069Z,7.80
2018-12-19T12:13:03.617Z,7.86
2018-12-19T12:15:36.219Z,7.91
2018-12-19T12:18:08.763Z,7.88
2018-12-19T12:20:41.338Z,7.88
2018-12-19T12:23:13.887Z,7.86
2018-12-19T12:25:46.456Z,7.90
2018-12-19T12:28:19.042Z,8.05
2018-12-19T12:30:52.294Z,8.11
2018-12-19T12:33:25.352Z,8.20
2018-12-19T12:35:58.191Z,8.27
2018-12-19T12:38:34.044Z,8.23
2018-12-19T12:41:05.616Z,8.28
2018-12-19T12:43:38.155Z,8.27
2018-12-19T12:46:10.723Z,8.40
2018-12-19T12:48:43.268Z,8.36
2018-12-19T12:51:15.971Z,8.38
2018-12-19T12:53:48.522Z,8.42
2018-12-19T12:56:21.324Z,8.45
2018-12-19T12:58:53.866Z,8.52
2018-12-19T13:01:26.451Z,8.52
2018-12-19T13:03:59.104Z,8.54
2018-12-19T13:06:31.701Z,8.59
2018-12-19T13:09:07.046Z,8.69
2018-12-19T13:11:39.628Z,8.60
2018-12-19T13:14:12.312Z,8.60
2018-12-19T13:16:44.960Z,8.77
2018-12-19T13:19:17.511Z,8.87
2018-12-19T13:21:50.111Z,8.85
2018-12-19T13:24:22.658Z,8.94
2018-12-19T13:26:55.330Z,9.02
2018-12-19T13:29:27.901Z,9.11
2018-12-19T13:32:00.805Z,9.19
2018-12-19T13:34:33.353Z,9.20
2018-12-19T13:37:06.168Z,9.22
2018-12-19T13:39:38.707Z,9.22
2018-12-19T13:42:11.281Z,9.22
2018-12-19T13:44:43.823Z,9.08
2018-12-19T13:47:16.421Z,9.03
2018-12-19T13:49:48.972Z,9.12
2018-12-19T13:52:21.549Z,9.08
2018-12-19T13:54:54.090Z,9.05
2018-12-19T13:57:28.329Z,9.04
2018-12-19T14:00:01.073Z,9.05
2018-12-19T14:02:33.733Z,9.06
2018-12-19T14:05:06.399Z,9.10
2018-12-19T14:07:38.976Z,9.03
2018-12-19T14:10:11.537Z,9.01
2018-12-19T14:12:44.127Z,8.96
2018-12-19T14:15:16.691Z,8.91
2018-12-19T14:17:49.378Z,8.89
2018-12-19T14:20:21.934Z,8.94
2018-12-19T14:22:54.528Z,8.96
2018-12-19T14:25:27.078Z,8.84
2018-12-19T14:27:59.690Z,8.90
2018-12-19T14:30:32.239Z,8.98
2018-12-19T14:33:04.886Z,8.89
2018-12-19T14:35:37.446Z,8.83
2018-12-19T14:38:10.091Z,8.92
2018-12-19T14:40:42.636Z,8.89
2018-12-19T14:43:15.273Z,8.86
2018-12-19T14:45:47.824Z,8.85
2018-12-19T14:48:20.421Z,8.79
2018-12-19T14:50:53.070Z,8.84
2018-12-19T14:53:25.719Z,8.89
2018-12-19T14:55:58.536Z,8.96
2018-12-19T14:58:31.106Z,8.90
2018-12-19T15:01:03.780Z,8.91
2018-12-19T15:03:36.456Z,8.95
2018-12-19T15:06:09.144Z,8.88
2018-12-19T15:08:41.807Z,8.91
2018-12-19T15:11:14.350Z,8.90
2018-12-19T15:13:46.941Z,8.88
2018-12-19T15:16:21.583Z,8.91
2018-12-19T15:18:54.235Z,8.94
2018-12-19T15:21:26.794Z,8.97
2018-12-19T15:23:59.430Z,8.97
2018-12-19T15:26:31.994Z,9.00
2018-12-19T15:29:04.665Z,8.98
2018-12-19T15:31:37.338Z,8.99
2018-12-19T15:34:10.083Z,8.92
2018-12-19T15:36:42.632Z,8.92
2018-12-19T15:39:15.275Z,8.91
2018-12-19T15:41:47.813Z,8.94
2018-12-19T15:44:20.398Z,8.98
2018-12-19T15:46:52.962Z,8.97
2018-12-19T15:49:25.864Z,8.94
2018-12-19T15:51:58.428Z,8.94
2018-12-19T15:54:31.081Z,8.89
2018-12-19T15:57:03.634Z,8.81
2018-12-19T15:59:36.225Z,8.91
2018-12-19T16:02:08.766Z,8.91
2018-12-19T16:04:41.343Z,8.92
2018-12-19T16:07:13.935Z,8.95
2018-12-19T16:09:46.577Z,8.93
2018-12-19T16:12:19.274Z,8.88
2018-12-19T16:14:51.850Z,8.96
2018-12-19T16:17:24.453Z,8.99
2018-12-19T16:19:57.163Z,9.03
2018-12-19T16:22:31.176Z,9.02
2018-12-19T16:25:04.594Z,9.03
2018-12-19T16:27:37.286Z,9.07
2018-12-19T16:30:11.139Z,9.06
2018-12-19T16:32:43.964Z,9.07
2018-12-19T16:35:16.694Z,9.05
2018-12-19T16:37:49.595Z,9.04
2018-12-19T16:40:22.376Z,9.05
2018-12-19T16:42:55.510Z,9.04
2018-12-19T16:45:28.564Z,9.04
2018-12-19T16:48:01.244Z,9.02
2018-12-19T16:50:33.854Z,9.10
2018-12-19T16:53:06.444Z,9.05
2018-12-19T16:55:39.143Z,9.04
2018-12-19T16:58:11.713Z,9.03
2018-12-19T17:00:44.345Z,9.01
2018-12-19T17:03:16.930Z,9.02
2018-12-19T17:05:49.586Z,9.02
2018-12-19T17:08:22.143Z,9.05
2018-12-19T17:10:54.708Z,9.13
2018-12-19T17:13:27.265Z,9.11
2018-12-19T17:15:59.924Z,9.14
2018-12-19T17:18:32.456Z,9.14
2018-12-19T17:21:05.121Z,9.12
2018-12-19T17:23:37.692Z,9.17
2018-12-19T17:26:10.291Z,9.18
2018-12-19T17:28:42.847Z,9.21
2018-12-19T17:31:15.509Z,9.21
2018-12-19T17:33:48.078Z,9.15
2018-12-19T17:36:20.651Z,9.05
2018-12-19T17:38:53.246Z,9.10
2018-12-19T17:41:26.027Z,9.08
2018-12-19T17:43:58.576Z,9.11
2018-12-19T17:46:31.147Z,9.10
2018-12-19T17:49:03.745Z,9.10
2018-12-19T17:51:36.454Z,8.97
2018-12-19T17:54:09.012Z,9.08
2018-12-19T17:56:41.628Z,9.08
2018-12-19T17:59:14.175Z,9.07
2018-12-19T18:01:46.988Z,8.96
2018-12-19T18:04:19.512Z,8.95
2018-12-19T18:06:52.101Z,8.99
2018-12-19T18:09:24.794Z,8.92
2018-12-19T18:11:57.352Z,8.99
2018-12-19T18:14:29.885Z,9.00
2018-12-19T18:17:02.470Z,8.99
2018-12-19T18:19:35.060Z,9.02
2018-12-19T18:22:07.698Z,9.02
2018-12-19T18:24:40.263Z,8.99
2018-12-19T18:27:12.912Z,9.05
2018-12-19T18:29:45.449Z,9.08
2018-12-19T18:32:18.034Z,9.10
2018-12-19T18:34:50.703Z,8.92
2018-12-19T18:37:23.288Z,8.99
2018-12-19T18:39:55.862Z,8.98
2018-12-19T18:42:28.437Z,8.99
2018-12-19T18:45:00.994Z,8.89
2018-12-19T18:47:33.585Z,8.79
2018-12-19T18:50:07.440Z,8.78
2018-12-19T18:52:40.056Z,8.70
2018-12-19T18:55:12.788Z,8.68
2018-12-19T18:57:45.563Z,8.63
2018-12-19T19:00:20.264Z,8.53
2018-12-19T19:02:53.023Z,8.49
2018-12-19T19:05:25.711Z,8.42
2018-12-19T19:07:58.456Z,8.37
2018-12-19T19:10:31.080Z,8.31
2018-12-19T19:13:03.690Z,8.26
2018-12-19T19:15:36.261Z,8.22
2018-12-19T19:18:08.971Z,8.12
2018-12-19T19:20:41.558Z,8.04
2018-12-19T19:23:14.347Z,7.94
2018-12-19T19:25:47.272Z,7.91
2018-12-19T19:28:19.950Z,7.74
2018-12-19T19:30:52.527Z,7.74
2018-12-19T19:33:25.144Z,7.75
2018-12-19T19:35:57.684Z,7.75
2018-12-19T19:38:30.246Z,7.73
2018-12-19T19:41:02.795Z,7.72
2018-12-19T19:43:35.569Z,7.68
2018-12-19T19:46:08.138Z,7.61
2018-12-19T19:48:40.717Z,7.62
2018-12-19T19:51:16.942Z,7.67
2018-12-19T19:53:48.059Z,7.67
2018-12-19T19:56:20.644Z,7.68
2018-12-19T19:58:53.242Z,7.65
2018-12-19T20:01:25.852Z,7.71
2018-12-19T20:03:58.511Z,7.73
2018-12-19T20:06:31.070Z,7.71
2018-12-19T20:09:06.931Z,7.81
2018-12-19T20:11:39.548Z,7.83
2018-12-19T20:14:12.199Z,7.85
2018-12-19T20:16:50.683Z,7.85
2018-12-19T20:19:23.366Z,7.83
2018-12-19T20:21:55.944Z,7.87
2018-12-19T20:24:28.530Z,7.90
2018-12-19T20:27:01.073Z,7.94
2018-12-19T20:29:33.653Z,7.81
2018-12-19T20:32:06.478Z,7.88
2018-12-19T20:34:39.231Z,7.90
2018-12-19T20:37:11.786Z,7.93
2018-12-19T20:39:45.494Z,7.95
2018-12-19T20:42:18.247Z,7.98
2018-12-19T20:44:50.823Z,7.97
2018-12-19T20:47:23.353Z,8.07
2018-12-19T20:49:56.134Z,8.19
2018-12-19T20:52:28.732Z,8.24
2018-12-19T20:55:01.349Z,8.26
2018-12-19T20:57:33.910Z,8.30
2018-12-19T21:00:07.043Z,8.29
2018-12-19T21:02:39.593Z,8.35
2018-12-19T21:05:12.163Z,8.41
2018-12-19T21:07:44.753Z,8.45
2018-12-19T21:10:17.488Z,8.45
2018-12-19T21:12:50.035Z,8.49
2018-12-19T21:15:22.780Z,8.51
2018-12-19T21:21:04.907Z,8.53
2018-12-19T21:23:37.611Z,8.57
2018-12-19T21:26:11.361Z,8.62
2018-12-19T21:28:43.943Z,8.64
2018-12-19T21:31:16.772Z,8.63
2018-12-19T21:33:49.445Z,8.64
2018-12-19T21:36:22.090Z,8.70
2018-12-19T21:38:54.752Z,8.74
2018-12-19T21:41:27.433Z,8.75
2018-12-19T21:44:00.028Z,8.73
2018-12-19T21:46:32.770Z,8.73
2018-12-19T21:49:05.498Z,8.74
2018-12-19T21:51:38.185Z,8.72
2018-12-19T21:54:10.933Z,8.74
2018-12-19T21:56:43.493Z,8.75
2018-12-19T21:59:16.070Z,8.74
2018-12-19T22:01:48.652Z,8.73
2018-12-19T22:04:21.262Z,8.71
2018-12-19T22:06:54.039Z,8.73
2018-12-19T22:09:26.671Z,8.74
2018-12-19T22:11:59.889Z,8.76
2018-12-19T22:14:32.829Z,8.78
2018-12-19T22:17:11.644Z,8.70
2018-12-19T22:19:44.681Z,8.71
2018-12-19T22:22:18.266Z,8.71
2018-12-19T22:24:51.470Z,8.72
2018-12-19T22:27:24.361Z,8.61
2018-12-19T22:29:57.492Z,8.62
2018-12-19T22:32:30.575Z,8.71
2018-12-19T22:35:03.665Z,8.77
2018-12-19T22:37:36.859Z,8.78
2018-12-19T22:40:09.995Z,8.70
2018-12-19T22:42:43.170Z,8.71
2018-12-19T22:45:16.225Z,8.75
2018-12-19T22:47:49.118Z,8.67
2018-12-19T22:50:22.154Z,8.71
2018-12-19T22:52:54.736Z,8.78
2018-12-19T22:55:27.345Z,8.82
2018-12-19T22:57:59.963Z,8.83
2018-12-19T23:00:34.566Z,8.84
2018-12-19T23:03:08.103Z,8.82
2018-12-19T23:05:46.332Z,8.75
2018-12-19T23:08:19.834Z,8.73
2018-12-19T23:10:53.819Z,8.75
2018-12-19T23:13:28.187Z,8.78
2018-12-19T23:16:05.488Z,8.81
2018-12-19T23:18:42.378Z,8.86
2018-12-19T23:21:19.622Z,8.83
2018-12-19T23:23:56.187Z,8.79
2018-12-19T23:26:35.017Z,8.78
2018-12-19T23:29:15.303Z,8.76
2018-12-19T23:31:53.913Z,8.74
2018-12-19T23:34:30.202Z,8.72
2018-12-19T23:37:07.737Z,8.57
2018-12-19T23:39:47.825Z,8.51
2018-12-19T23:42:24.430Z,8.47
2018-12-19T23:45:04.701Z,8.46
2018-12-19T23:47:42.702Z,8.40
2018-12-19T23:50:23.308Z,8.34
2018-12-19T23:52:57.319Z,8.24
2018-12-19T23:55:30.787Z,8.20
2018-12-19T23:58:13.691Z,8.15
